Airfield :
LOGIN :

Register | Disclaimer

   EN    FR    IT 

 










Legend :    VFR   Marginal VFR   IFR   Intensive IFR   Very Intensive IFR
Visi :
Ceiling :
>= 8 km
>= 3000ft
5 to 8 km
1000 to 3000 ft
1500m to 5 km
500 to 1000 ft
800 to 1500m
200 to 500 ft
< 800m
< 200 ft
Symbols :   Thunderstorms  Fog  Heavy snow  Heavy precipitations  Wind > 20 kt
SIGMETs :     Misc.  Thunderstorms  Icing  Turbulence  Mountain Waves  Volcanic Ashes






- Airport Elevation : 3125 ft
- IATA code : ESB


LTAC - Ankara Esenboga

CURRENT METAR :
  • 210720Z 36008KT 4700 -RA BR BKN010 BKN020 BKN080 03/01 Q1010 BECMG 8000

EXPIRED METARs :
  • 210650Z 36006KT 6000 -RA BKN020 BKN080 03/01 Q1010 TEMPO 4000 BR
  • 210620Z 36005KT 4800 -RA BR BKN025 BKN080 03/01 Q1010 BECMG 8000
  • 210550Z 03005KT 6000 -RA BKN030 BKN080 03/01 Q1010 NOSIG RMK RWY21L 36005KT RWY03L 03004KT RWY21R 02007KT
  • 210520Z 03004KT 340V050 6000 -RA BKN025 BKN080 03/01 Q1010 NOSIG RMK RWY21L 36003KT RWY03L 01003KT RWY21R 01005KT
  • 210450Z 36003KT 310V030 6000 -RA BKN025 BKN080 03/01 Q1010 NOSIG RMK RWY21L 35004KT RWY03L 34002KT RWY21R 33003KT

TAF TAF LTAC
Valid from the 21 at 06:00 until the 22 at 06:00 UTC


210440Z 2106/2206 VRB02KT 9999 SCT040 BKN100
TEMPO 2106/2110 4000 -RASN BR SCT010 BKN025
TEMPO 2110/2114 -RA BKN025 BKN080
TEMPO 2114/2118 -RA
TEMPO 2201/2205 4000 -SN BR SCT010 BKN025



MET'MAP, your aeronautical weather chart ! - Copyright ORBIFLY December 2007 - Disclaimer

ORBIFLY MET'MAP TEAM :

Programming & Development : Alexandra Zaïnal
Concept & original design : Baudouin d'Aumeries
Assistance for programming : Marc-Olivier Méhu
Technical & hardware support : Manuel Goepfert

Contact : metmap@orbifly.com




SOURCES & CREDITS :

   NOAA